ENOV

Ørsta-Volda , Hovden Airport

Ørsta, Norway
METAR ENOV 221650Z VRB04KT 9999 FEW012 SCT024 BKN030 12/07 Q1024 RMK WIND 2175FT 01004KT
Observed Flight Rules
May-22 @ 16:50 UTC (an hour ago) Marginal Visual Flight Rules
Wind Visibility Clouds
Variable at 4 knots 10,000+ meters
  • Few at 1,200' AGL
  • Scattered at 2,400' AGL
  • Broken at 3,000' AGL
Temperatures Readings
Current 12°C / 54°F
Dewpoint 7°C / 45°F
Humidity 72%
Altimeter 30.24" Hg
Pressure 1024 hPa
Elevation 74
METAR ENOV 221650Z VRB04KT 9999 FEW012 SCT024 BKN030 12/07 Q1024 RMK WIND 2175FT 01004KT
Observed Flight Rules
May-22 @ 16:50 UTC
(an hour ago)
MVFR
Wind Visibility
Variable at 4 knots 10,000+ meters
Clouds
  • Few at 1,200' AGL
  • Scattered at 2,400' AGL
  • Broken at 3,000' AGL
Temperature Dewpoint
12°C / 54°F 7°C / 45°F
Humidity Altimeter Pressure
72% 30.24" Hg 1024 hPa